createdAt,value
2023-03-01T00:01:20.016Z,100773.41
2023-03-01T00:04:25.616Z,100773.44
2023-03-01T00:05:57.595Z,100776.94
2023-03-01T00:07:29.454Z,100771.81
2023-03-01T00:09:01.266Z,100766.66
2023-03-01T00:10:33.043Z,100763.25
2023-03-01T00:12:05.238Z,100773.53
2023-03-01T00:13:37.331Z,100755.47
2023-03-01T00:15:12.849Z,100762.16
2023-03-01T00:16:45.101Z,100756.13
2023-03-01T00:18:16.967Z,100755.28
2023-03-01T00:19:48.797Z,100749.31
2023-03-01T00:21:21.144Z,100748.47
2023-03-01T00:22:53.320Z,100741.59
2023-03-01T00:24:25.172Z,100740.78
2023-03-01T00:25:57.080Z,100731.31
2023-03-01T00:27:32.017Z,100730.50
2023-03-01T00:29:04.271Z,100727.91
2023-03-01T00:30:36.100Z,100723.59
2023-03-01T00:32:08.175Z,100723.59
2023-03-01T00:33:40.142Z,100720.94
2023-03-01T00:35:11.989Z,100731.22
2023-03-01T00:36:44.004Z,100725.94
2023-03-01T00:38:15.813Z,100722.50
2023-03-01T00:39:47.593Z,100721.69
2023-03-01T00:41:20.172Z,100713.03
2023-03-01T00:42:52.054Z,100709.66
2023-03-01T00:44:23.980Z,100713.06
2023-03-01T00:45:55.828Z,100709.66
2023-03-01T00:47:29.683Z,100703.63
2023-03-01T00:49:03.405Z,100701.91
2023-03-01T00:50:35.229Z,100700.19
2023-03-01T00:52:07.137Z,100709.59
2023-03-01T00:53:39.183Z,100705.19
2023-03-01T00:55:11.241Z,100696.69
2023-03-01T00:56:43.155Z,100697.59
2023-03-01T00:58:15.008Z,100699.34
2023-03-01T00:59:46.795Z,100697.66
2023-03-01T01:01:36.853Z,100698.53
2023-03-01T01:03:08.727Z,100706.28
2023-03-01T01:04:40.669Z,100705.47
2023-03-01T01:06:16.517Z,100711.44
2023-03-01T01:07:49.353Z,100706.34
2023-03-01T01:09:21.383Z,100701.22
2023-03-01T01:10:53.175Z,100690.09
2023-03-01T01:12:25.053Z,100690.94
2023-03-01T01:13:56.954Z,100689.22
2023-03-01T01:15:28.824Z,100686.69
2023-03-01T01:17:00.633Z,100687.53
2023-03-01T01:18:32.686Z,100684.06
2023-03-01T01:20:04.692Z,100684.06
2023-03-01T01:21:37.477Z,100679.81
2023-03-01T01:23:09.228Z,100681.50
2023-03-01T01:24:41.032Z,100679.81
2023-03-01T01:26:17.258Z,100674.66
2023-03-01T01:27:49.084Z,100675.53
2023-03-01T01:29:21.066Z,100673.78
2023-03-01T01:30:53.002Z,100675.53
2023-03-01T01:32:26.976Z,100672.94
2023-03-01T01:33:59.044Z,100674.63
2023-03-01T01:35:30.948Z,100670.31
2023-03-01T01:37:04.029Z,100676.34
2023-03-01T01:38:36.376Z,100678.03
2023-03-01T01:40:08.486Z,100678.88
2023-03-01T01:41:41.366Z,100681.47
2023-03-01T01:43:22.442Z,100684.03
2023-03-01T01:45:12.984Z,100682.31
2023-03-01T01:46:52.317Z,100676.28
2023-03-01T01:48:25.280Z,100680.56
2023-03-01T01:49:57.095Z,100680.56
2023-03-01T01:51:29.956Z,100689.16
2023-03-01T01:53:02.054Z,100689.16
2023-03-01T01:54:39.641Z,100690.84
2023-03-01T01:56:11.482Z,100687.41
2023-03-01T01:57:44.330Z,100692.53
2023-03-01T01:59:16.247Z,100688.25
2023-03-01T02:00:51.335Z,100684.00
2023-03-01T02:02:23.320Z,100684.00
2023-03-01T02:03:57.567Z,100678.88
2023-03-01T02:05:35.234Z,100686.56
2023-03-01T02:07:17.907Z,100685.72
2023-03-01T02:08:50.254Z,100680.56
2023-03-01T02:10:22.490Z,100675.34
2023-03-01T02:11:54.396Z,100677.09
2023-03-01T02:13:26.403Z,100671.00
2023-03-01T02:14:58.232Z,100682.94
2023-03-01T02:16:30.608Z,100678.63
2023-03-01T02:18:03.104Z,100681.25
2023-03-01T02:19:44.456Z,100681.25
2023-03-01T02:21:19.339Z,100689.00
2023-03-01T02:22:51.132Z,100682.13
2023-03-01T02:24:23.024Z,100687.28
2023-03-01T02:26:16.938Z,100688.13
2023-03-01T02:27:48.742Z,100684.72
2023-03-01T02:29:20.580Z,100686.44
2023-03-01T02:31:11.103Z,100694.19
2023-03-01T02:32:43.099Z,100692.50
2023-03-01T02:34:16.306Z,100689.97
2023-03-01T02:37:28.598Z,100685.72
2023-03-01T02:39:00.763Z,100685.72
2023-03-01T02:40:32.614Z,100689.97
2023-03-01T02:42:04.505Z,100681.41
2023-03-01T02:43:36.481Z,100682.16
2023-03-01T02:45:08.363Z,100680.44
2023-03-01T02:46:44.072Z,100679.59
2023-03-01T02:48:15.966Z,100677.75
2023-03-01T02:49:47.807Z,100681.19
2023-03-01T02:51:19.651Z,100685.50
2023-03-01T02:53:17.713Z,100676.13
2023-03-01T02:54:51.504Z,100675.22
2023-03-01T02:56:23.578Z,100677.72
2023-03-01T02:57:55.518Z,100674.25
2023-03-01T02:59:28.889Z,100668.25
2023-03-01T03:01:02.203Z,100670.00
2023-03-01T03:02:37.545Z,100669.16
2023-03-01T03:04:11.149Z,100670.03
2023-03-01T03:05:43.076Z,100669.19
2023-03-01T03:07:17.956Z,100668.31
2023-03-01T03:08:49.864Z,100661.44
2023-03-01T03:10:28.129Z,100659.75
2023-03-01T03:11:59.916Z,100663.06
2023-03-01T03:13:31.826Z,100665.66
2023-03-01T03:15:09.968Z,100667.41
2023-03-01T03:16:45.386Z,100670.00
2023-03-01T03:18:18.418Z,100672.56
2023-03-01T03:19:50.191Z,100666.56
2023-03-01T03:21:22.072Z,100667.44
2023-03-01T03:22:54.743Z,100664.88
2023-03-01T03:24:26.622Z,100666.63
2023-03-01T03:25:58.530Z,100657.19
2023-03-01T03:27:30.478Z,100665.78
2023-03-01T03:29:02.425Z,100670.91
2023-03-01T03:30:34.202Z,100668.31
2023-03-01T03:32:06.080Z,100665.75
2023-03-01T03:33:38.000Z,100661.50
2023-03-01T03:35:13.473Z,100668.34
2023-03-01T03:36:45.291Z,100665.78
2023-03-01T03:38:18.192Z,100662.38
2023-03-01T03:41:20.214Z,100661.53
2023-03-01T03:42:52.166Z,100660.66
2023-03-01T03:44:42.755Z,100659.81
2023-03-01T03:46:14.707Z,100656.41
2023-03-01T03:47:46.737Z,100663.28
2023-03-01T03:49:18.639Z,100656.44
2023-03-01T03:50:51.509Z,100659.00
2023-03-01T03:52:26.427Z,100665.84
2023-03-01T03:53:58.277Z,100656.44
2023-03-01T03:55:31.913Z,100655.59
2023-03-01T03:57:03.790Z,100668.47
2023-03-01T03:58:35.656Z,100659.00
2023-03-01T04:01:59.687Z,100670.13
2023-03-01T04:03:32.071Z,100671.88
2023-03-01T04:05:04.022Z,100677.00
2023-03-01T04:06:36.153Z,100677.84
2023-03-01T04:08:11.043Z,100680.44
2023-03-01T04:09:45.013Z,100674.44
2023-03-01T04:11:28.775Z,100677.00
2023-03-01T04:13:00.677Z,100672.72
2023-03-01T04:14:32.605Z,100670.97
2023-03-01T04:16:04.596Z,100674.44
2023-03-01T04:17:36.578Z,100673.53
2023-03-01T04:19:08.448Z,100681.28
2023-03-01T04:20:40.332Z,100684.72
2023-03-01T04:22:14.680Z,100679.56
2023-03-01T04:23:46.513Z,100688.16
2023-03-01T04:25:18.374Z,100693.31
2023-03-01T04:26:50.297Z,100689.06
2023-03-01T04:28:28.816Z,100685.59
2023-03-01T04:30:00.708Z,100689.88
2023-03-01T04:31:32.645Z,100688.16
2023-03-01T04:33:05.388Z,100684.78
2023-03-01T04:34:37.229Z,100683.88
2023-03-01T04:36:10.132Z,100689.03
2023-03-01T04:37:43.005Z,100684.72
2023-03-01T04:39:14.887Z,100690.75
2023-03-01T04:40:47.047Z,100689.84
2023-03-01T04:42:22.089Z,100691.63
2023-03-01T04:43:54.034Z,100683.91
2023-03-01T04:45:26.134Z,100686.50
2023-03-01T04:46:57.973Z,100681.38
2023-03-01T04:48:30.149Z,100689.97
2023-03-01T04:50:02.027Z,100681.41
2023-03-01T04:51:34.051Z,100693.41
2023-03-01T04:53:05.987Z,100689.13
2023-03-01T04:54:37.993Z,100688.25
2023-03-01T04:56:09.986Z,100679.72
2023-03-01T04:57:42.075Z,100676.28
2023-03-01T04:59:14.594Z,100671.16
2023-03-01T05:00:46.446Z,100671.16
2023-03-01T05:02:18.419Z,100676.28
2023-03-01T05:03:51.662Z,100674.59
2023-03-01T05:05:28.064Z,100677.16
2023-03-01T05:07:00.095Z,100674.59
2023-03-01T05:08:35.613Z,100673.72
2023-03-01T05:10:08.000Z,100670.25
2023-03-01T05:11:39.926Z,100665.97
2023-03-01T05:13:12.014Z,100669.44
2023-03-01T05:14:43.979Z,100675.44
2023-03-01T05:16:15.850Z,100672.00
2023-03-01T05:17:47.778Z,100677.19
2023-03-01T05:19:24.035Z,100678.00
2023-03-01T05:20:59.674Z,100677.16
2023-03-01T05:22:31.558Z,100671.97
2023-03-01T05:24:03.689Z,100669.38
2023-03-01T05:25:35.813Z,100671.94
2023-03-01T05:27:07.664Z,100671.06
2023-03-01T05:28:39.587Z,100673.59
2023-03-01T05:30:18.328Z,100664.16
2023-03-01T05:31:50.267Z,100664.97
2023-03-01T05:33:23.355Z,100659.84
2023-03-01T05:34:56.484Z,100659.91
2023-03-01T05:36:28.615Z,100658.16
2023-03-01T05:38:00.741Z,100657.31
2023-03-01T05:39:32.961Z,100659.03
2023-03-01T05:41:05.258Z,100662.47
2023-03-01T05:44:18.546Z,100666.78
2023-03-01T05:45:50.600Z,100678.78
2023-03-01T05:47:22.560Z,100672.81
2023-03-01T05:48:57.640Z,100673.66
2023-03-01T05:50:30.797Z,100682.25
2023-03-01T05:52:02.856Z,100674.56
2023-03-01T05:53:34.746Z,100682.28
2023-03-01T05:55:07.238Z,100674.59
2023-03-01T05:56:39.320Z,100680.56
2023-03-01T05:58:17.918Z,100678.88
2023-03-01T05:59:49.890Z,100675.41
2023-03-01T06:01:21.759Z,100675.44
2023-03-01T06:02:54.786Z,100675.44
2023-03-01T06:04:26.766Z,100681.44
2023-03-01T06:05:58.949Z,100683.19
2023-03-01T06:07:31.064Z,100680.56
2023-03-01T06:09:02.984Z,100684.88
2023-03-01T06:10:34.886Z,100684.91
2023-03-01T06:13:51.114Z,100684.06
2023-03-01T06:15:23.219Z,100684.06
2023-03-01T06:16:55.194Z,100695.22
2023-03-01T06:18:27.297Z,100687.53
2023-03-01T06:19:59.424Z,100692.69
2023-03-01T06:21:31.321Z,100693.53
2023-03-01T06:23:03.619Z,100687.56
2023-03-01T06:24:35.647Z,100683.25
2023-03-01T06:26:08.370Z,100690.97
2023-03-01T06:27:40.983Z,100687.56
2023-03-01T06:29:13.076Z,100688.47
2023-03-01T06:30:45.118Z,100690.19
2023-03-01T06:32:17.477Z,100688.50
2023-03-01T06:33:49.394Z,100690.19
2023-03-01T06:35:21.556Z,100690.19
2023-03-01T06:36:53.497Z,100689.31
2023-03-01T06:38:25.750Z,100685.03
2023-03-01T06:39:57.624Z,100689.31
2023-03-01T06:41:29.680Z,100694.50
2023-03-01T06:43:02.226Z,100688.50
2023-03-01T06:44:34.179Z,100697.09
2023-03-01T06:46:08.194Z,100696.22
2023-03-01T06:49:19.860Z,100690.22
2023-03-01T06:50:51.825Z,100690.28
2023-03-01T06:52:23.674Z,100684.25
2023-03-01T06:53:55.561Z,100691.97
2023-03-01T06:55:27.561Z,100689.44
2023-03-01T06:56:59.457Z,100693.72
2023-03-01T06:58:31.460Z,100682.56
2023-03-01T07:00:04.317Z,100689.47
2023-03-01T07:01:36.202Z,100690.34
2023-03-01T07:03:08.203Z,100684.31
2023-03-01T07:04:40.164Z,100691.22
2023-03-01T07:06:12.010Z,100691.22
2023-03-01T07:07:43.909Z,100685.22
2023-03-01T07:09:16.032Z,100689.56
2023-03-01T07:10:47.931Z,100684.41
2023-03-01T07:12:19.758Z,100684.41
2023-03-01T07:13:56.456Z,100681.84
2023-03-01T07:15:28.471Z,100679.25
2023-03-01T07:17:00.356Z,100685.31
2023-03-01T07:18:32.201Z,100676.75
2023-03-01T07:20:04.290Z,100675.06
2023-03-01T07:21:36.233Z,100670.78
2023-03-01T07:23:08.098Z,100675.94
2023-03-01T07:24:39.976Z,100673.38
2023-03-01T07:26:11.871Z,100670.78
2023-03-01T07:27:43.784Z,100670.81
2023-03-01T07:29:15.633Z,100663.94
2023-03-01T07:30:47.541Z,100672.50
2023-03-01T07:32:19.488Z,100668.22
2023-03-01T07:33:51.347Z,100670.81
2023-03-01T07:35:23.804Z,100667.41
2023-03-01T07:36:55.696Z,100668.28
2023-03-01T07:38:27.877Z,100672.59
2023-03-01T07:39:59.766Z,100669.19
2023-03-01T07:41:31.626Z,100670.91
2023-03-01T07:43:03.643Z,100664.03
2023-03-01T07:44:38.252Z,100664.06
2023-03-01T07:46:10.374Z,100670.06
2023-03-01T07:47:42.272Z,100668.38
2023-03-01T07:49:14.278Z,100667.53
2023-03-01T07:50:46.258Z,100675.25
2023-03-01T07:52:18.073Z,100672.69
2023-03-01T07:53:50.072Z,100666.69
2023-03-01T07:55:22.138Z,100676.16
2023-03-01T07:56:54.010Z,100680.44
2023-03-01T07:58:25.836Z,100680.47
2023-03-01T07:59:57.752Z,100677.06
2023-03-01T08:03:07.514Z,100677.03
2023-03-01T08:04:39.580Z,100670.22
2023-03-01T08:06:12.058Z,100665.91
2023-03-01T08:07:43.967Z,100675.34
2023-03-01T08:09:15.858Z,100675.31
2023-03-01T08:10:47.854Z,100669.28
2023-03-01T08:12:21.673Z,100671.88
2023-03-01T08:48:12.111Z,100672.84
2023-03-01T08:49:44.085Z,100667.72
2023-03-01T08:51:18.097Z,100677.97
2023-03-01T08:52:50.001Z,100676.25
2023-03-01T08:54:22.759Z,100669.34
2023-03-01T08:55:54.702Z,100674.47
2023-03-01T08:57:26.739Z,100667.66
2023-03-01T08:58:58.683Z,100670.16
2023-03-01T09:00:30.557Z,100669.25
2023-03-01T09:02:02.647Z,100672.63
2023-03-01T09:03:34.691Z,100675.22
2023-03-01T09:05:06.775Z,100673.50
2023-03-01T09:06:38.752Z,100676.97
2023-03-01T09:08:10.742Z,100675.22
2023-03-01T09:09:42.679Z,100674.34
2023-03-01T09:11:17.270Z,100682.06
2023-03-01T09:12:49.192Z,100676.94
2023-03-01T09:14:21.190Z,100673.50
2023-03-01T09:15:53.281Z,100686.41
2023-03-01T09:17:25.253Z,100683.88
2023-03-01T09:18:57.204Z,100682.16
2023-03-01T09:20:29.168Z,100683.03
2023-03-01T09:23:42.739Z,100684.72
2023-03-01T09:25:14.918Z,100681.31
2023-03-01T09:26:49.890Z,100679.63
2023-03-01T09:28:30.139Z,100683.97
2023-03-01T09:30:02.584Z,100684.84
2023-03-01T09:31:34.578Z,100689.13
2023-03-01T09:33:06.569Z,100675.44
2023-03-01T09:34:57.307Z,100676.91
2023-03-01T09:36:30.339Z,100677.72
2023-03-01T09:38:02.449Z,100681.94
2023-03-01T09:39:34.297Z,100674.22
2023-03-01T09:41:25.015Z,100670.75
2023-03-01T09:43:02.753Z,100669.88
2023-03-01T09:44:34.639Z,100666.53
2023-03-01T09:46:07.479Z,100665.59
2023-03-01T09:47:39.423Z,100667.34
2023-03-01T09:49:20.197Z,100667.34
2023-03-01T09:50:52.445Z,100668.28
2023-03-01T09:52:36.285Z,100670.94
2023-03-01T09:54:09.802Z,100668.31
2023-03-01T09:56:05.349Z,100678.66
2023-03-01T09:57:43.243Z,100679.47
2023-03-01T09:59:15.172Z,100674.31
2023-03-01T10:00:48.583Z,100676.06
2023-03-01T10:02:23.041Z,100668.41
2023-03-01T10:04:06.808Z,100662.38
2023-03-01T10:05:44.840Z,100666.69
2023-03-01T10:07:17.259Z,100662.41
2023-03-01T10:08:56.674Z,100661.56
2023-03-01T10:10:34.415Z,100665.03
2023-03-01T10:12:09.845Z,100660.75
2023-03-01T10:14:00.184Z,100664.19
2023-03-01T10:15:36.822Z,100653.88
2023-03-01T10:17:11.462Z,100656.47
2023-03-01T10:18:43.392Z,100655.66
2023-03-01T10:20:17.847Z,100659.09
2023-03-01T10:21:49.776Z,100651.19
2023-03-01T10:23:21.836Z,100647.78
2023-03-01T10:24:53.683Z,100640.88
2023-03-01T10:26:54.731Z,100640.88
2023-03-01T10:28:27.982Z,100642.66
2023-03-01T10:30:02.174Z,100641.84
2023-03-01T10:31:38.532Z,100641.03
2023-03-01T10:33:29.429Z,100642.69
2023-03-01T10:35:01.372Z,100640.97
2023-03-01T10:36:34.190Z,100641.88
2023-03-01T10:38:24.094Z,100641.78
2023-03-01T10:39:56.806Z,100643.47
2023-03-01T10:41:29.247Z,100633.84
2023-03-01T10:43:02.811Z,100636.38
2023-03-01T10:44:43.477Z,100640.69
2023-03-01T10:46:24.368Z,100640.75
2023-03-01T10:48:17.356Z,100644.94
2023-03-01T10:50:18.394Z,100639.94
2023-03-01T10:51:51.786Z,100639.13
2023-03-01T10:53:32.588Z,100633.16
2023-03-01T10:55:06.450Z,100639.13
2023-03-01T10:56:49.754Z,100642.56
2023-03-01T10:58:22.887Z,100640.78
2023-03-01T11:00:02.162Z,100635.56
2023-03-01T11:01:36.598Z,100627.94
2023-03-01T11:03:12.485Z,100627.06
2023-03-01T11:05:00.335Z,100634.81
2023-03-01T11:06:32.265Z,100627.94
2023-03-01T11:08:04.652Z,100631.34
2023-03-01T11:09:39.668Z,100618.47
2023-03-01T11:11:32.779Z,100612.53
2023-03-01T11:13:20.135Z,100612.53
2023-03-01T11:14:52.849Z,100608.16
2023-03-01T11:16:34.776Z,100601.31
2023-03-01T11:18:14.137Z,100607.34
2023-03-01T11:20:02.909Z,100610.81
2023-03-01T11:21:35.146Z,100598.88
2023-03-01T11:23:09.396Z,100593.75
2023-03-01T11:25:08.460Z,100592.94
2023-03-01T11:26:46.111Z,100581.84
2023-03-01T11:28:19.016Z,100585.25
2023-03-01T11:29:55.852Z,100585.28
2023-03-01T11:31:27.865Z,100586.16
2023-03-01T11:33:04.964Z,100588.72
2023-03-01T11:34:40.942Z,100587.91
2023-03-01T11:36:31.456Z,100575.91
2023-03-01T11:38:06.312Z,100580.19
2023-03-01T11:39:44.005Z,100573.25
2023-03-01T11:41:17.181Z,100573.25
2023-03-01T11:42:57.982Z,100566.41
2023-03-01T11:44:29.994Z,100569.81
2023-03-01T11:46:20.937Z,100568.13
2023-03-01T11:48:22.209Z,100561.28
2023-03-01T11:50:03.018Z,100565.59
2023-03-01T11:53:18.223Z,100556.09
2023-03-01T11:54:59.618Z,100555.25
2023-03-01T11:56:42.468Z,100545.03
2023-03-01T11:58:26.477Z,100549.31
2023-03-01T12:00:21.643Z,100546.78
2023-03-01T12:01:53.697Z,100552.78
2023-03-01T12:03:30.525Z,100553.63
2023-03-01T12:05:02.516Z,100550.19
2023-03-01T12:06:34.456Z,100544.19
2023-03-01T12:08:09.626Z,100547.63
2023-03-01T12:09:44.295Z,100539.09
2023-03-01T12:11:24.510Z,100551.97
2023-03-01T12:13:10.273Z,100540.00
2023-03-01T12:14:46.353Z,100543.44
2023-03-01T12:16:36.281Z,100540.84
2023-03-01T12:18:15.250Z,100547.72
2023-03-01T12:21:54.996Z,100548.63
2023-03-01T12:23:45.547Z,100545.19
2023-03-01T12:25:28.200Z,100550.31
2023-03-01T12:27:11.992Z,100550.19
2023-03-01T12:28:47.379Z,100541.69
2023-03-01T12:30:22.163Z,100540.88
2023-03-01T12:31:57.076Z,100549.47
2023-03-01T12:33:33.211Z,100543.44
2023-03-01T12:35:13.899Z,100548.59
2023-03-01T12:37:13.488Z,100547.75
2023-03-01T12:39:04.278Z,100538.38
2023-03-01T12:40:43.808Z,100535.81
2023-03-01T12:42:18.643Z,100529.81
2023-03-01T12:44:07.232Z,100529.81
2023-03-01T12:45:45.802Z,100524.69
2023-03-01T12:47:20.612Z,100535.88
2023-03-01T12:49:04.678Z,100537.56
2023-03-01T12:50:39.331Z,100532.44
2023-03-01T12:52:13.185Z,100530.72
2023-03-01T12:53:48.582Z,100527.31
2023-03-01T12:55:37.029Z,100522.16
2023-03-01T12:57:14.802Z,100528.19
2023-03-01T12:59:00.150Z,100528.19
2023-03-01T13:00:49.384Z,100529.88
2023-03-01T13:02:25.278Z,100523.88
2023-03-01T13:04:04.676Z,100527.31
2023-03-01T13:05:57.949Z,100526.44
2023-03-01T13:07:42.143Z,100529.03
2023-03-01T13:09:13.939Z,100526.47
2023-03-01T13:10:50.832Z,100530.75
2023-03-01T13:12:41.336Z,100524.72
2023-03-01T13:14:33.486Z,100525.59
2023-03-01T13:16:40.105Z,100527.28
2023-03-01T13:18:17.830Z,100526.38
2023-03-01T13:19:59.496Z,100533.25
2023-03-01T13:21:32.195Z,100523.78
2023-03-01T13:23:09.744Z,100524.66
2023-03-01T13:24:42.376Z,100527.25
2023-03-01T13:26:16.071Z,100526.41
2023-03-01T13:27:48.471Z,100526.41
2023-03-01T13:29:27.301Z,100521.28
2023-03-01T13:30:59.546Z,100516.97
2023-03-01T13:32:44.497Z,100517.81
2023-03-01T13:34:39.316Z,100515.19
2023-03-01T13:36:14.707Z,100516.88
2023-03-01T13:37:47.037Z,100516.88
2023-03-01T13:39:24.620Z,100506.59
2023-03-01T13:40:56.823Z,100504.84
2023-03-01T13:42:39.271Z,100503.09
2023-03-01T13:44:16.974Z,100499.69
2023-03-01T13:45:48.914Z,100502.31
2023-03-01T13:47:20.830Z,100498.88
2023-03-01T13:48:54.667Z,100492.00
2023-03-01T13:50:27.554Z,100486.81
2023-03-01T13:51:59.453Z,100491.09
2023-03-01T13:53:32.350Z,100493.72
2023-03-01T13:55:05.294Z,100493.72
2023-03-01T13:56:39.926Z,100491.16
2023-03-01T13:58:18.362Z,100490.34
2023-03-01T13:59:50.263Z,100483.47
2023-03-01T14:01:24.263Z,100488.59
2023-03-01T14:03:22.753Z,100495.44
2023-03-01T14:04:59.154Z,100500.59
2023-03-01T14:06:32.626Z,100498.03
2023-03-01T14:08:05.239Z,100493.78
2023-03-01T14:09:37.166Z,100495.50
2023-03-01T14:11:27.915Z,100494.63
2023-03-01T14:13:11.413Z,100499.78
2023-03-01T14:14:55.257Z,100497.22
2023-03-01T14:16:46.729Z,100498.09
2023-03-01T14:18:24.548Z,100495.50
2023-03-01T14:20:00.145Z,100490.38
2023-03-01T14:21:32.077Z,100494.66
2023-03-01T14:23:04.241Z,100496.38
2023-03-01T14:24:36.247Z,100494.69
2023-03-01T14:26:08.959Z,100495.56
2023-03-01T14:27:43.226Z,100495.56
2023-03-01T14:29:33.706Z,100496.47
2023-03-01T14:31:26.812Z,100493.88
2023-03-01T14:32:59.702Z,100495.63
2023-03-01T14:34:31.623Z,100496.47
2023-03-01T14:36:04.860Z,100497.34
2023-03-01T14:37:36.791Z,100498.16
2023-03-01T14:39:18.111Z,100500.75
2023-03-01T14:40:50.187Z,100496.47
2023-03-01T14:42:22.522Z,100499.03
2023-03-01T14:44:17.763Z,100500.78
2023-03-01T14:45:50.232Z,100499.94
2023-03-01T14:47:28.515Z,100497.41
2023-03-01T14:50:35.330Z,100493.09
2023-03-01T14:52:18.930Z,100487.91
2023-03-01T14:53:51.626Z,100490.50
2023-03-01T14:55:27.923Z,100487.03
2023-03-01T14:57:01.024Z,100489.63
2023-03-01T14:58:33.779Z,100483.63
2023-03-01T15:00:08.265Z,100480.19
2023-03-01T15:01:41.488Z,100478.47
2023-03-01T15:03:14.967Z,100475.91
2023-03-01T15:04:50.447Z,100474.19
2023-03-01T15:06:23.533Z,100472.47
2023-03-01T15:07:55.415Z,100470.78
2023-03-01T15:09:27.257Z,100476.78
2023-03-01T15:11:03.969Z,100468.19
2023-03-01T15:12:36.910Z,100471.63
2023-03-01T15:14:27.220Z,100472.47
2023-03-01T15:16:03.008Z,100475.06
2023-03-01T15:17:39.415Z,100471.63
2023-03-01T15:19:17.022Z,100469.03
2023-03-01T15:20:49.493Z,100474.19
2023-03-01T15:22:21.394Z,100479.34
2023-03-01T15:23:54.549Z,100469.88
2023-03-01T15:25:27.349Z,100468.19
2023-03-01T15:27:03.087Z,100475.03
2023-03-01T15:28:38.588Z,100471.59
2023-03-01T15:30:15.870Z,100472.47
2023-03-01T15:32:01.017Z,100472.47
2023-03-01T15:33:34.493Z,100475.91
2023-03-01T15:35:25.470Z,100472.47
2023-03-01T15:36:59.506Z,100472.47
2023-03-01T15:38:31.422Z,100470.72
2023-03-01T15:40:05.574Z,100469.88
2023-03-01T15:41:47.840Z,100478.44
2023-03-01T15:43:58.392Z,100469.88
2023-03-01T15:45:30.933Z,100473.31
2023-03-01T15:47:03.368Z,100475.88
2023-03-01T15:48:35.230Z,100471.59
2023-03-01T15:50:07.503Z,100473.31
2023-03-01T15:51:39.549Z,100473.28
2023-03-01T15:53:13.618Z,100481.03
2023-03-01T15:54:47.200Z,100473.28
2023-03-01T15:56:19.792Z,100482.72
2023-03-01T15:57:51.882Z,100481.00
2023-03-01T15:59:24.046Z,100482.72
2023-03-01T16:01:01.168Z,100481.00
2023-03-01T16:02:34.110Z,100481.88
2023-03-01T16:04:06.107Z,100481.03
2023-03-01T16:05:37.990Z,100475.00
2023-03-01T16:07:11.103Z,100482.72
2023-03-01T16:08:43.237Z,100485.28
2023-03-01T16:10:15.322Z,100475.84
2023-03-01T16:11:47.226Z,100480.13
2023-03-01T16:13:19.184Z,100472.41
2023-03-01T16:14:51.340Z,100478.44
2023-03-01T16:16:23.858Z,100475.84
2023-03-01T16:17:55.889Z,100473.25
2023-03-01T16:19:27.791Z,100477.56
2023-03-01T16:20:59.772Z,100471.53
2023-03-01T16:22:31.756Z,100463.81
2023-03-01T16:24:03.922Z,100468.94
2023-03-01T16:25:36.404Z,100463.81
2023-03-01T16:27:08.427Z,100462.94
2023-03-01T16:28:41.213Z,100454.34
2023-03-01T16:30:13.766Z,100457.78
2023-03-01T16:31:45.700Z,100452.63
2023-03-01T16:33:28.704Z,100451.78
2023-03-01T16:35:05.203Z,100456.91
2023-03-01T16:36:38.046Z,100451.78
2023-03-01T16:38:09.919Z,100451.78
2023-03-01T16:39:41.853Z,100456.91
2023-03-01T16:41:17.593Z,100448.34
2023-03-01T16:42:50.075Z,100448.34
2023-03-01T16:44:22.198Z,100439.75
2023-03-01T16:45:54.280Z,100436.31
2023-03-01T16:47:26.109Z,100440.59
2023-03-01T16:48:58.161Z,100446.59
2023-03-01T16:50:30.114Z,100443.19
2023-03-01T16:52:02.042Z,100438.03
2023-03-01T16:53:35.599Z,100455.16
2023-03-01T16:55:08.523Z,100440.59
2023-03-01T16:56:40.915Z,100438.00
2023-03-01T16:58:13.007Z,100433.69
2023-03-01T16:59:44.973Z,100428.53
2023-03-01T17:01:17.797Z,100428.50
2023-03-01T17:02:50.190Z,100426.81
2023-03-01T17:04:22.110Z,100419.09
2023-03-01T17:05:54.116Z,100419.06
2023-03-01T17:07:26.314Z,100421.66
2023-03-01T17:08:58.462Z,100428.50
2023-03-01T17:10:30.485Z,100429.38
2023-03-01T17:12:02.622Z,100427.66
2023-03-01T17:13:35.838Z,100425.94
2023-03-01T17:15:08.181Z,100424.25
2023-03-01T17:16:40.185Z,100421.66
2023-03-01T17:18:12.558Z,100425.09
2023-03-01T17:19:44.903Z,100427.69
2023-03-01T17:21:17.028Z,100428.53
2023-03-01T17:22:48.888Z,100425.09
2023-03-01T17:24:20.727Z,100431.09
2023-03-01T17:25:56.272Z,100421.66
2023-03-01T17:29:01.237Z,100423.38
2023-03-01T17:30:33.048Z,100431.13
2023-03-01T17:32:05.420Z,100436.25
2023-03-01T17:33:37.353Z,100431.97
2023-03-01T17:35:09.413Z,100429.38
2023-03-01T17:36:44.618Z,100430.25
2023-03-01T17:38:17.302Z,100425.94
2023-03-01T17:39:49.210Z,100426.81
2023-03-01T17:41:22.322Z,100429.38
2023-03-01T17:42:54.365Z,100436.22
2023-03-01T17:44:26.514Z,100435.38
2023-03-01T17:45:58.483Z,100430.25
2023-03-01T17:47:30.414Z,100435.38
2023-03-01T17:49:02.471Z,100437.09
2023-03-01T17:50:34.687Z,100444.81
2023-03-01T17:52:06.584Z,100449.97
2023-03-01T17:53:38.512Z,100436.25
2023-03-01T17:55:12.856Z,100442.25
2023-03-01T17:56:44.971Z,100437.97
2023-03-01T17:58:17.568Z,100439.72
2023-03-01T17:59:49.689Z,100445.72
2023-03-01T18:01:22.027Z,100434.56
2023-03-01T18:02:53.927Z,100441.41
2023-03-01T18:04:25.832Z,100443.16
2023-03-01T18:05:58.870Z,100432.00
2023-03-01T18:07:30.859Z,100438.88
2023-03-01T18:09:02.917Z,100441.44
2023-03-01T18:10:36.738Z,100437.16
2023-03-01T18:12:08.674Z,100441.41
2023-03-01T18:13:41.116Z,100444.00
2023-03-01T18:15:13.092Z,100445.72
2023-03-01T18:16:45.023Z,100444.00
2023-03-01T18:18:17.186Z,100443.13
2023-03-01T18:19:52.442Z,100447.44
2023-03-01T18:21:24.463Z,100446.56
2023-03-01T18:22:56.358Z,100446.56
2023-03-01T18:24:28.321Z,100441.44
2023-03-01T18:27:33.995Z,100440.53
2023-03-01T18:29:05.947Z,100437.13
2023-03-01T18:30:38.091Z,100447.38
2023-03-01T18:32:10.144Z,100440.53
2023-03-01T18:33:42.075Z,100439.66
2023-03-01T18:35:14.080Z,100436.22
2023-03-01T18:37:00.377Z,100437.13
2023-03-01T18:38:38.056Z,100437.13
2023-03-01T18:40:10.191Z,100440.50
2023-03-01T18:41:42.157Z,100435.31
2023-03-01T18:43:14.283Z,100440.41
2023-03-01T18:44:46.276Z,100437.78
2023-03-01T18:46:20.548Z,100436.06
2023-03-01T18:47:52.639Z,100443.81
2023-03-01T18:49:24.548Z,100441.22
2023-03-01T18:50:59.326Z,100443.78
2023-03-01T18:52:31.190Z,100445.47
2023-03-01T18:54:03.087Z,100442.06
2023-03-01T18:55:38.489Z,100445.50
2023-03-01T18:57:10.419Z,100447.19
2023-03-01T18:58:45.507Z,100449.78
2023-03-01T19:01:53.925Z,100445.53